createdAt,value
2022-12-14T00:02:21.798Z,97027.44
2022-12-14T00:05:25.226Z,97020.72
2022-12-14T00:08:44.418Z,97023.22
2022-12-14T00:11:54.933Z,97009.78
2022-12-14T00:15:03.332Z,97016.53
2022-12-14T00:18:11.881Z,97006.41
2022-12-14T00:21:24.110Z,97004.72
2022-12-14T00:24:28.906Z,97010.59
2022-12-14T00:27:33.870Z,96998.00
2022-12-14T00:30:43.352Z,96985.34
2022-12-14T00:33:52.381Z,97000.50
2022-12-14T00:36:59.065Z,97003.00
2022-12-14T00:40:09.933Z,96997.06
2022-12-14T00:43:13.578Z,96999.63
2022-12-14T00:46:22.653Z,96991.19
2022-12-14T00:49:26.481Z,96992.06
2022-12-14T00:52:30.459Z,96972.69
2022-12-14T00:55:41.806Z,96977.69
2022-12-14T00:58:46.331Z,96965.97
2022-12-14T01:01:51.985Z,96952.44
2022-12-14T01:05:07.553Z,96984.47
2022-12-14T01:08:10.921Z,96981.09
2022-12-14T01:11:16.377Z,96981.13
2022-12-14T01:14:22.260Z,96987.75
2022-12-14T01:17:35.633Z,96997.97
2022-12-14T01:20:38.998Z,97015.66
2022-12-14T01:23:44.131Z,97022.38
2022-12-14T01:26:49.027Z,97011.44
2022-12-14T01:29:54.215Z,97004.69
2022-12-14T01:32:57.711Z,96996.25
2022-12-14T01:36:05.485Z,96993.72
2022-12-14T01:39:13.701Z,96991.22
2022-12-14T01:42:21.227Z,96929.81
2022-12-14T01:45:27.154Z,96972.63
2022-12-14T01:48:39.536Z,96960.91
2022-12-14T01:51:49.791Z,96954.16
2022-12-14T01:55:01.154Z,96953.28
2022-12-14T01:58:10.174Z,96950.75
2022-12-14T02:01:13.633Z,96952.44
2022-12-14T02:04:21.502Z,96954.13
2022-12-14T02:07:30.393Z,96949.91
2022-12-14T02:10:37.507Z,96953.25
2022-12-14T02:13:46.205Z,96949.03
2022-12-14T02:16:57.840Z,96945.69
2022-12-14T02:20:08.375Z,96938.09
2022-12-14T02:23:45.483Z,96942.31
2022-12-14T02:27:01.101Z,96940.59
2022-12-14T02:30:10.535Z,96944.00
2022-12-14T02:33:37.458Z,96939.75
2022-12-14T02:36:46.373Z,96949.00
2022-12-14T02:40:03.879Z,96943.06
2022-12-14T02:43:18.802Z,96933.81
2022-12-14T02:46:31.107Z,96904.38
2022-12-14T02:49:51.907Z,96908.53
2022-12-14T02:53:04.612Z,96900.88
2022-12-14T02:56:14.276Z,96859.88
2022-12-14T02:59:19.995Z,96892.41
2022-12-14T03:02:34.222Z,96878.25
2022-12-14T03:05:37.923Z,96869.78
2022-12-14T03:08:47.809Z,96874.88
2022-12-14T03:11:57.152Z,96867.97
2022-12-14T03:15:01.308Z,96866.41
2022-12-14T03:18:08.952Z,96852.94
2022-12-14T03:21:20.231Z,96854.56
2022-12-14T03:24:30.549Z,96862.19
2022-12-14T03:27:38.267Z,96832.78
2022-12-14T03:30:59.797Z,96851.22
2022-12-14T03:34:13.297Z,96863.84
2022-12-14T03:37:21.237Z,96857.13
2022-12-14T03:40:30.942Z,96851.25
2022-12-14T03:43:42.080Z,96847.06
2022-12-14T03:46:57.829Z,96843.72
2022-12-14T03:50:08.257Z,96836.13
2022-12-14T03:53:16.727Z,96789.09
2022-12-14T03:56:34.915Z,96821.72
2022-12-14T03:59:44.233Z,96829.41
2022-12-14T04:02:51.815Z,96826.88
2022-12-14T04:06:01.656Z,96821.81
2022-12-14T04:09:19.595Z,96821.84
2022-12-14T04:12:51.864Z,96824.22
2022-12-14T04:16:15.416Z,96823.44
2022-12-14T04:19:26.533Z,96818.28
2022-12-14T04:22:36.558Z,96829.38
2022-12-14T04:26:05.376Z,96819.25
2022-12-14T04:29:32.778Z,96814.19
2022-12-14T04:34:51.059Z,96809.19
2022-12-14T04:37:59.469Z,96810.91
2022-12-14T04:41:15.951Z,96797.41
2022-12-14T04:44:25.738Z,96793.19
2022-12-14T04:47:39.871Z,96784.81
2022-12-14T04:50:52.374Z,96770.34
2022-12-14T04:54:03.871Z,96763.50
2022-12-14T04:57:17.452Z,96773.06
2022-12-14T05:00:23.131Z,96765.84
2022-12-14T05:03:31.453Z,96762.09
2022-12-14T05:06:50.440Z,96752.00
2022-12-14T05:09:59.190Z,96729.06
2022-12-14T05:13:08.261Z,96758.63
2022-12-14T05:16:16.777Z,96756.22
2022-12-14T05:19:27.442Z,96744.44
2022-12-14T05:22:38.770Z,96733.41
2022-12-14T05:25:44.869Z,96732.63
2022-12-14T05:28:54.294Z,96728.38
2022-12-14T05:31:59.209Z,96717.34
2022-12-14T05:35:03.433Z,96717.41
2022-12-14T05:38:15.396Z,96695.53
2022-12-14T05:41:18.986Z,96704.69
2022-12-14T05:44:22.452Z,96693.78
2022-12-14T05:47:26.506Z,96692.88
2022-12-14T05:50:30.126Z,96689.50
2022-12-14T05:53:42.401Z,96696.22
2022-12-14T05:56:47.011Z,96694.31
2022-12-14T05:59:53.289Z,96686.03
2022-12-14T06:02:59.315Z,96691.13
2022-12-14T06:06:25.344Z,96697.84
2022-12-14T06:09:33.686Z,96691.91
2022-12-14T06:12:39.585Z,96696.13
2022-12-14T06:15:46.007Z,96665.72
2022-12-14T06:18:53.567Z,96675.16
2022-12-14T06:21:57.015Z,96690.16
2022-12-14T06:25:01.916Z,96681.72
2022-12-14T06:28:14.067Z,96675.88
2022-12-14T06:31:19.451Z,96664.88
2022-12-14T06:34:28.701Z,96663.16
2022-12-14T06:37:35.263Z,96628.75
2022-12-14T06:40:45.180Z,96670.53
2022-12-14T06:43:49.996Z,96678.03
2022-12-14T06:46:57.704Z,96669.81
2022-12-14T06:50:01.204Z,96675.66
2022-12-14T06:53:12.445Z,96664.22
2022-12-14T06:56:39.644Z,96665.59
2022-12-14T06:59:52.211Z,96669.72
2022-12-14T07:02:56.147Z,96659.59
2022-12-14T07:06:03.661Z,96666.72
2022-12-14T07:09:09.839Z,96673.81
2022-12-14T07:12:15.499Z,96661.91
2022-12-14T07:15:22.870Z,96650.25
2022-12-14T07:18:36.203Z,96623.34
2022-12-14T07:21:39.696Z,96609.69
2022-12-14T07:24:49.960Z,96611.28
2022-12-14T07:27:57.173Z,96618.88
2022-12-14T07:31:04.169Z,96586.16
2022-12-14T07:34:09.363Z,96636.53
2022-12-14T07:37:15.956Z,96629.72
2022-12-14T07:40:25.396Z,96626.25
2022-12-14T07:43:33.937Z,96635.59
2022-12-14T07:46:39.690Z,96641.47
2022-12-14T07:49:45.972Z,96643.88
2022-12-14T07:52:55.587Z,96647.28
2022-12-14T07:56:04.856Z,96579.31
2022-12-14T07:59:17.222Z,96628.75
2022-12-14T08:02:23.853Z,96608.31
2022-12-14T08:05:30.364Z,96612.59
2022-12-14T08:08:36.267Z,96631.94
2022-12-14T08:11:43.132Z,96642.91
2022-12-14T08:14:51.944Z,96626.00
2022-12-14T08:17:55.631Z,96618.44
2022-12-14T08:21:04.981Z,96617.50
2022-12-14T08:24:12.527Z,96595.56
2022-12-14T08:27:15.952Z,96593.88
2022-12-14T08:30:20.757Z,96587.09
2022-12-14T08:33:24.132Z,96575.13
2022-12-14T08:36:29.573Z,96571.00
2022-12-14T08:39:33.195Z,96564.97
2022-12-14T08:42:37.685Z,96555.63
2022-12-14T08:45:42.558Z,96546.28
2022-12-14T08:48:47.079Z,96526.88
2022-12-14T08:51:52.741Z,96521.03
2022-12-14T08:54:58.392Z,96509.97
2022-12-14T08:58:02.427Z,96509.97
2022-12-14T09:01:09.555Z,96443.09
2022-12-14T09:04:13.220Z,96512.16
2022-12-14T09:07:19.513Z,96514.63
2022-12-14T09:10:23.805Z,96511.34
2022-12-14T09:13:28.214Z,96537.34
2022-12-14T09:16:34.204Z,96541.91
2022-12-14T09:19:37.634Z,96551.00
2022-12-14T09:22:41.181Z,96522.38
2022-12-14T09:25:44.625Z,96520.69
2022-12-14T09:28:50.691Z,96492.25
2022-12-14T09:31:56.007Z,96502.75
2022-12-14T09:35:00.089Z,96495.22
2022-12-14T09:38:04.762Z,96504.31
2022-12-14T09:41:16.524Z,96502.63
2022-12-14T09:44:26.931Z,96495.28
2022-12-14T09:47:37.240Z,96506.84
2022-12-14T09:50:41.415Z,96507.69
2022-12-14T09:53:47.699Z,96516.38
2022-12-14T09:56:54.156Z,96507.19
2022-12-14T09:59:58.513Z,96490.75
2022-12-14T10:03:22.630Z,96517.81
2022-12-14T10:06:52.528Z,96533.28
2022-12-14T10:10:04.188Z,96535.88
2022-12-14T10:13:20.789Z,96545.97
2022-12-14T10:16:28.963Z,96538.53
2022-12-14T10:19:41.959Z,96531.84
2022-12-14T10:22:51.555Z,96531.03
2022-12-14T10:25:59.110Z,96516.03
2022-12-14T10:29:07.972Z,96506.59
2022-12-14T10:34:46.481Z,96479.06
2022-12-14T10:37:57.153Z,96470.38
2022-12-14T10:41:07.748Z,96466.19
2022-12-14T10:44:18.365Z,96479.59
2022-12-14T10:47:32.860Z,96471.25
2022-12-14T10:50:52.473Z,96462.72
2022-12-14T10:54:23.420Z,96456.72
2022-12-14T10:57:28.914Z,96435.66
2022-12-14T11:00:32.362Z,96424.25
2022-12-14T11:03:35.682Z,96381.16
2022-12-14T11:06:40.444Z,96405.88
2022-12-14T11:09:47.130Z,96431.88
2022-12-14T11:13:02.031Z,96427.50
2022-12-14T11:16:19.763Z,96404.84
2022-12-14T11:19:25.314Z,96412.88
2022-12-14T11:23:45.516Z,96422.13
2022-12-14T11:26:51.766Z,96418.78
2022-12-14T11:29:57.845Z,96418.94
2022-12-14T11:33:01.500Z,96409.97
2022-12-14T11:36:05.333Z,96409.00
2022-12-14T11:39:23.024Z,96398.03
2022-12-14T11:42:29.755Z,96399.63
2022-12-14T11:45:34.735Z,96412.13
2022-12-14T11:48:47.129Z,96412.13
2022-12-14T11:52:00.781Z,96403.63
2022-12-14T11:55:11.917Z,96406.78
2022-12-14T11:58:20.797Z,96416.97
2022-12-14T12:01:27.254Z,96421.16
2022-12-14T12:04:31.829Z,96412.66
2022-12-14T12:07:40.538Z,96397.97
2022-12-14T12:10:50.127Z,96409.66
2022-12-14T12:14:00.981Z,96415.47
2022-12-14T12:17:18.992Z,96404.88
2022-12-14T12:20:32.104Z,96409.13
2022-12-14T12:23:40.719Z,96410.28
2022-12-14T12:26:49.780Z,96404.25
2022-12-14T12:30:03.051Z,96398.56
2022-12-14T12:33:15.713Z,96385.84
2022-12-14T12:36:24.265Z,96390.09
2022-12-14T12:39:29.016Z,96386.59
2022-12-14T12:42:41.705Z,96381.75
2022-12-14T12:45:50.673Z,96377.38
2022-12-14T12:49:00.296Z,96394.34
2022-12-14T12:52:06.947Z,96391.28
2022-12-14T12:55:16.131Z,96395.00
2022-12-14T12:58:24.269Z,96384.47
2022-12-14T13:01:37.697Z,96382.19
2022-12-14T13:05:22.056Z,96382.25
2022-12-14T13:08:35.076Z,96368.00
2022-12-14T13:11:42.100Z,96389.53
2022-12-14T13:14:50.002Z,96385.44
2022-12-14T13:18:06.514Z,96379.25
2022-12-14T13:21:29.534Z,96385.31
2022-12-14T13:24:35.800Z,96377.59
2022-12-14T13:28:04.853Z,96376.09
2022-12-14T13:31:15.308Z,96377.44
2022-12-14T13:34:29.670Z,96383.38
2022-12-14T13:37:52.904Z,96390.53
2022-12-14T13:41:08.715Z,96383.72
2022-12-14T13:44:43.619Z,96389.50
2022-12-14T13:47:52.255Z,96395.53
2022-12-14T13:51:02.346Z,96403.94
2022-12-14T13:54:09.047Z,96403.84
2022-12-14T13:57:15.729Z,96397.28
2022-12-14T14:00:52.505Z,96406.16
2022-12-14T14:04:22.794Z,96412.13
2022-12-14T14:07:51.988Z,96429.28
2022-12-14T14:11:13.993Z,96427.38
2022-12-14T14:14:30.200Z,96428.59
2022-12-14T14:17:39.525Z,96426.47
2022-12-14T14:20:47.780Z,96435.50
2022-12-14T14:24:04.119Z,96431.09
2022-12-14T14:27:18.286Z,96426.88
2022-12-14T14:30:27.435Z,96424.31
2022-12-14T14:33:47.376Z,96415.66
2022-12-14T14:36:53.373Z,96419.28
2022-12-14T14:40:25.957Z,96423.22
2022-12-14T14:43:40.182Z,96424.28
2022-12-14T14:46:47.167Z,96398.34
2022-12-14T14:49:55.631Z,96426.84
2022-12-14T14:53:02.837Z,96430.22
2022-12-14T14:56:34.779Z,96421.09
2022-12-14T14:59:51.070Z,96440.34
2022-12-14T15:02:59.461Z,96445.41
2022-12-14T15:06:04.495Z,96436.06
2022-12-14T15:09:17.666Z,96435.22
2022-12-14T15:12:34.375Z,96440.00
2022-12-14T15:15:42.548Z,96450.06
2022-12-14T15:18:46.011Z,96454.69
2022-12-14T15:21:51.445Z,96463.19
2022-12-14T15:24:57.942Z,96472.63
2022-12-14T15:28:08.658Z,96477.63
2022-12-14T15:31:12.372Z,96479.94
2022-12-14T15:34:19.242Z,96474.25
2022-12-14T15:37:29.749Z,96422.97
2022-12-14T15:40:34.333Z,96474.81
2022-12-14T15:43:44.871Z,96479.63
2022-12-14T15:46:57.227Z,96472.41
2022-12-14T15:50:18.533Z,96475.69
2022-12-14T15:53:33.264Z,96466.66
2022-12-14T15:56:43.108Z,96413.47
2022-12-14T15:59:50.071Z,96498.16
2022-12-14T16:02:56.451Z,96473.97
2022-12-14T16:06:03.592Z,96505.06
2022-12-14T16:09:18.076Z,96509.16
2022-12-14T16:12:28.398Z,96511.69
2022-12-14T16:15:36.527Z,96509.06
2022-12-14T16:18:44.128Z,96513.34
2022-12-14T16:22:17.429Z,96507.59
2022-12-14T16:25:24.287Z,96523.47
2022-12-14T16:28:31.154Z,96526.00
2022-12-14T16:35:01.420Z,96524.38
2022-12-14T16:38:16.777Z,96480.31
2022-12-14T16:41:21.253Z,96521.28
2022-12-14T16:44:39.462Z,96549.78
2022-12-14T16:48:04.124Z,96539.66
2022-12-14T16:52:06.934Z,96553.03
2022-12-14T16:55:15.461Z,96545.56
2022-12-14T16:58:20.070Z,96556.59
2022-12-14T17:01:27.962Z,96565.69
2022-12-14T17:04:38.974Z,96557.34
2022-12-14T17:07:46.220Z,96562.28
2022-12-14T17:10:53.567Z,96557.13
2022-12-14T17:13:59.446Z,96562.16
2022-12-14T17:17:07.488Z,96557.97
2022-12-14T17:20:18.390Z,96559.63
2022-12-14T17:23:28.940Z,96567.09
2022-12-14T17:26:34.609Z,96573.88
2022-12-14T17:29:38.864Z,96576.50
2022-12-14T17:32:45.265Z,96581.50
2022-12-14T17:35:48.872Z,96583.16
2022-12-14T17:38:55.647Z,96586.50
2022-12-14T17:41:59.052Z,96590.66
2022-12-14T17:45:03.756Z,96590.75
2022-12-14T17:48:13.705Z,96605.06
2022-12-14T17:51:25.308Z,96613.44
2022-12-14T17:54:30.559Z,96616.09
2022-12-14T17:57:34.067Z,96613.50
2022-12-14T18:00:55.931Z,96627.16
2022-12-14T18:03:59.397Z,96616.25
2022-12-14T18:07:04.363Z,96637.19
2022-12-14T18:10:11.422Z,96637.16
2022-12-14T18:13:23.562Z,96643.09
2022-12-14T18:16:30.849Z,96645.69
2022-12-14T18:19:37.158Z,96643.06
2022-12-14T18:22:43.218Z,96646.56
2022-12-14T18:25:59.637Z,96644.72
2022-12-14T18:29:04.963Z,96641.56
2022-12-14T18:32:11.310Z,96641.66
2022-12-14T18:35:19.844Z,96652.78
2022-12-14T18:38:27.314Z,96653.53
2022-12-14T18:41:35.174Z,96656.06
2022-12-14T18:44:41.677Z,96656.47
2022-12-14T18:47:49.277Z,96634.47
2022-12-14T18:51:00.413Z,96666.31
2022-12-14T18:54:04.834Z,96658.72
2022-12-14T18:57:14.792Z,96580.84
2022-12-14T19:00:21.189Z,96648.00
2022-12-14T19:03:31.500Z,96677.22
2022-12-14T19:06:46.387Z,96682.19
2022-12-14T19:09:56.187Z,96685.66
2022-12-14T19:13:01.166Z,96684.75
2022-12-14T19:16:05.782Z,96691.41
2022-12-14T19:19:09.522Z,96685.44
2022-12-14T19:22:13.203Z,96694.63
2022-12-14T19:25:19.205Z,96698.13
2022-12-14T19:28:32.356Z,96704.97
2022-12-14T19:31:39.902Z,96712.56
2022-12-14T19:34:46.211Z,96706.72
2022-12-14T19:37:52.564Z,96708.34
2022-12-14T19:41:03.489Z,96712.63
2022-12-14T19:44:12.426Z,96710.19
2022-12-14T19:47:19.249Z,96706.06
2022-12-14T19:50:26.227Z,96720.41
2022-12-14T19:53:33.248Z,96719.59
2022-12-14T19:56:45.799Z,96713.81
2022-12-14T19:59:57.042Z,96668.56
2022-12-14T20:03:03.629Z,96713.94
2022-12-14T20:06:09.681Z,96722.53
2022-12-14T20:09:16.397Z,96726.63
2022-12-14T20:12:20.411Z,96735.94
2022-12-14T20:15:25.824Z,96740.94
2022-12-14T20:18:30.841Z,96739.25
2022-12-14T20:21:35.504Z,96743.47
2022-12-14T20:24:39.976Z,96759.38
2022-12-14T20:27:44.287Z,96751.91
2022-12-14T20:30:56.687Z,96760.97
2022-12-14T20:34:02.461Z,96771.94
2022-12-14T20:37:09.184Z,96777.03
2022-12-14T20:40:14.036Z,96763.69
2022-12-14T20:43:20.614Z,96774.63
2022-12-14T20:46:30.776Z,96775.22
2022-12-14T20:49:38.931Z,96787.72
2022-12-14T20:52:42.398Z,96783.78
2022-12-14T20:55:46.643Z,96779.50
2022-12-14T20:58:51.081Z,96789.63
2022-12-14T21:01:57.183Z,96796.41
2022-12-14T21:05:01.906Z,96805.56
2022-12-14T21:08:09.002Z,96809.03
2022-12-14T21:11:27.432Z,96809.88
2022-12-14T21:14:33.500Z,96804.09
2022-12-14T21:17:39.152Z,96799.00
2022-12-14T21:20:45.743Z,96810.00
2022-12-14T21:23:56.654Z,96811.66
2022-12-14T21:27:02.925Z,96815.75
2022-12-14T21:30:09.726Z,96814.09
2022-12-14T21:33:18.807Z,96768.06
2022-12-14T21:36:32.031Z,96825.09
2022-12-14T21:39:38.948Z,96771.50
2022-12-14T21:42:44.655Z,96827.59
2022-12-14T21:45:53.244Z,96831.81
2022-12-14T21:48:58.388Z,96839.41
2022-12-14T21:52:07.041Z,96837.00
2022-12-14T21:55:14.336Z,96828.50
2022-12-14T21:58:17.043Z,96831.00
2022-12-14T22:01:21.279Z,96828.44
2022-12-14T22:04:29.511Z,96824.13
2022-12-14T22:07:35.798Z,96825.06
2022-12-14T22:10:46.204Z,96836.88
2022-12-14T22:13:56.485Z,96844.53
2022-12-14T22:17:00.432Z,96839.38
2022-12-14T22:20:12.905Z,96847.88
2022-12-14T22:23:16.672Z,96815.25
2022-12-14T22:26:20.396Z,96780.03
2022-12-14T22:29:24.798Z,96838.59
2022-12-14T22:34:46.419Z,96844.72
2022-12-14T22:37:49.853Z,96832.03
2022-12-14T22:41:02.607Z,96836.19
2022-12-14T22:44:10.191Z,96842.88
2022-12-14T22:47:16.072Z,96852.19
2022-12-14T22:50:20.865Z,96849.66
2022-12-14T22:53:24.560Z,96854.72
2022-12-14T22:56:33.070Z,96856.34
2022-12-14T22:59:44.211Z,96861.53
2022-12-14T23:02:50.169Z,96870.03
2022-12-14T23:06:01.923Z,96872.44
2022-12-14T23:09:24.570Z,96879.97
2022-12-14T23:12:45.419Z,96882.50
2022-12-14T23:16:07.902Z,96884.22
2022-12-14T23:19:29.194Z,96886.81
2022-12-14T23:22:51.346Z,96877.63
2022-12-14T23:26:14.691Z,96876.75
2022-12-14T23:29:37.743Z,96872.41
2022-12-14T23:32:58.973Z,96875.78
2022-12-14T23:36:20.056Z,96850.66
2022-12-14T23:39:42.868Z,96873.38
2022-12-14T23:46:52.672Z,96878.34
2022-12-14T23:50:13.286Z,96881.81
2022-12-14T23:53:34.253Z,96885.97
2022-12-14T23:56:56.987Z,96894.41
